sensor_id;sensor_type;location;lat;lon;timestamp;P1;durP1;ratioP1;P2;durP2;ratioP2
55575;SDS011;41437;45.478;9.116;2023-02-28T00:01:39;14.40;;;7.60;;
55575;SDS011;41437;45.478;9.116;2023-02-28T00:04:40;11.10;;;7.13;;
55575;SDS011;41437;45.478;9.116;2023-02-28T00:07:43;12.90;;;7.50;;
55575;SDS011;41437;45.478;9.116;2023-02-28T00:10:45;13.00;;;7.40;;
55575;SDS011;41437;45.478;9.116;2023-02-28T00:13:46;13.02;;;7.22;;
55575;SDS011;41437;45.478;9.116;2023-02-28T00:16:48;13.32;;;7.43;;
55575;SDS011;41437;45.478;9.116;2023-02-28T00:19:50;14.00;;;6.95;;
55575;SDS011;41437;45.478;9.116;2023-02-28T00:22:53;13.70;;;7.72;;
55575;SDS011;41437;45.478;9.116;2023-02-28T00:25:57;11.82;;;7.13;;
55575;SDS011;41437;45.478;9.116;2023-02-28T00:28:59;13.13;;;7.40;;
55575;SDS011;41437;45.478;9.116;2023-02-28T00:32:00;11.35;;;6.70;;
55575;SDS011;41437;45.478;9.116;2023-02-28T00:35:02;12.55;;;7.65;;
55575;SDS011;41437;45.478;9.116;2023-02-28T00:38:05;12.55;;;7.13;;
55575;SDS011;41437;45.478;9.116;2023-02-28T00:41:07;11.57;;;7.07;;
55575;SDS011;41437;45.478;9.116;2023-02-28T00:44:09;14.73;;;7.45;;
55575;SDS011;41437;45.478;9.116;2023-02-28T00:47:10;11.75;;;6.90;;
55575;SDS011;41437;45.478;9.116;2023-02-28T00:50:12;12.35;;;6.70;;
55575;SDS011;41437;45.478;9.116;2023-02-28T00:53:15;14.27;;;6.60;;
55575;SDS011;41437;45.478;9.116;2023-02-28T00:56:16;12.95;;;7.03;;
55575;SDS011;41437;45.478;9.116;2023-02-28T00:59:18;11.18;;;6.68;;
55575;SDS011;41437;45.478;9.116;2023-02-28T01:02:20;11.93;;;6.88;;
55575;SDS011;41437;45.478;9.116;2023-02-28T01:05:22;13.90;;;6.68;;
55575;SDS011;41437;45.478;9.116;2023-02-28T01:08:25;10.68;;;6.45;;
55575;SDS011;41437;45.478;9.116;2023-02-28T01:11:27;12.63;;;6.67;;
55575;SDS011;41437;45.478;9.116;2023-02-28T01:14:28;11.93;;;6.65;;
55575;SDS011;41437;45.478;9.116;2023-02-28T01:17:30;10.98;;;6.05;;
55575;SDS011;41437;45.478;9.116;2023-02-28T01:20:33;13.02;;;6.97;;
55575;SDS011;41437;45.478;9.116;2023-02-28T01:23:39;12.57;;;6.85;;
55575;SDS011;41437;45.478;9.116;2023-02-28T01:26:41;13.55;;;7.60;;
55575;SDS011;41437;45.478;9.116;2023-02-28T01:29:42;12.52;;;7.05;;
55575;SDS011;41437;45.478;9.116;2023-02-28T01:32:44;12.07;;;6.70;;
55575;SDS011;41437;45.478;9.116;2023-02-28T01:35:45;12.43;;;7.20;;
55575;SDS011;41437;45.478;9.116;2023-02-28T01:38:48;11.52;;;6.55;;
55575;SDS011;41437;45.478;9.116;2023-02-28T01:41:50;12.23;;;7.00;;
55575;SDS011;41437;45.478;9.116;2023-02-28T01:44:56;17.20;;;7.18;;
55575;SDS011;41437;45.478;9.116;2023-02-28T01:48:04;10.38;;;6.70;;
55575;SDS011;41437;45.478;9.116;2023-02-28T01:51:10;11.35;;;6.68;;
55575;SDS011;41437;45.478;9.116;2023-02-28T01:54:16;11.85;;;6.90;;
55575;SDS011;41437;45.478;9.116;2023-02-28T01:57:20;12.18;;;6.95;;
55575;SDS011;41437;45.478;9.116;2023-02-28T02:00:26;11.60;;;7.10;;
55575;SDS011;41437;45.478;9.116;2023-02-28T02:03:29;10.52;;;6.75;;
55575;SDS011;41437;45.478;9.116;2023-02-28T02:06:34;12.23;;;7.10;;
55575;SDS011;41437;45.478;9.116;2023-02-28T02:09:40;15.40;;;7.38;;
55575;SDS011;41437;45.478;9.116;2023-02-28T02:12:50;14.38;;;6.97;;
55575;SDS011;41437;45.478;9.116;2023-02-28T02:16:14;10.85;;;6.63;;
55575;SDS011;41437;45.478;9.116;2023-02-28T02:26:39;12.65;;;7.13;;
55575;SDS011;41437;45.478;9.116;2023-02-28T02:30:06;14.30;;;7.22;;
55575;SDS011;41437;45.478;9.116;2023-02-28T02:37:01;12.07;;;6.97;;
55575;SDS011;41437;45.478;9.116;2023-02-28T02:40:24;13.75;;;6.60;;
55575;SDS011;41437;45.478;9.116;2023-02-28T02:43:29;12.60;;;7.13;;
55575;SDS011;41437;45.478;9.116;2023-02-28T02:46:37;9.90;;;6.68;;
55575;SDS011;41437;45.478;9.116;2023-02-28T02:49:42;11.40;;;7.10;;
55575;SDS011;41437;45.478;9.116;2023-02-28T02:52:49;10.07;;;6.47;;
55575;SDS011;41437;45.478;9.116;2023-02-28T02:55:54;12.82;;;7.43;;
55575;SDS011;41437;45.478;9.116;2023-02-28T02:58:59;12.43;;;7.65;;
55575;SDS011;41437;45.478;9.116;2023-02-28T03:02:04;13.43;;;7.30;;
55575;SDS011;41437;45.478;9.116;2023-02-28T03:05:12;15.73;;;8.07;;
55575;SDS011;41437;45.478;9.116;2023-02-28T03:08:20;13.82;;;7.70;;
55575;SDS011;41437;45.478;9.116;2023-02-28T03:11:21;14.95;;;7.63;;
55575;SDS011;41437;45.478;9.116;2023-02-28T03:14:30;14.38;;;8.77;;
55575;SDS011;41437;45.478;9.116;2023-02-28T03:17:49;11.82;;;6.63;;
55575;SDS011;41437;45.478;9.116;2023-02-28T03:21:04;13.68;;;7.55;;
55575;SDS011;41437;45.478;9.116;2023-02-28T03:24:14;12.23;;;7.65;;
55575;SDS011;41437;45.478;9.116;2023-02-28T03:27:21;12.27;;;6.90;;
55575;SDS011;41437;45.478;9.116;2023-02-28T03:30:29;11.93;;;6.93;;
55575;SDS011;41437;45.478;9.116;2023-02-28T03:33:41;15.05;;;7.50;;
55575;SDS011;41437;45.478;9.116;2023-02-28T03:36:46;12.93;;;7.45;;
55575;SDS011;41437;45.478;9.116;2023-02-28T03:39:53;11.88;;;7.20;;
55575;SDS011;41437;45.478;9.116;2023-02-28T03:42:58;11.23;;;7.25;;
55575;SDS011;41437;45.478;9.116;2023-02-28T03:46:05;13.25;;;7.72;;
55575;SDS011;41437;45.478;9.116;2023-02-28T03:49:12;12.65;;;7.15;;
55575;SDS011;41437;45.478;9.116;2023-02-28T03:52:23;10.23;;;6.55;;
55575;SDS011;41437;45.478;9.116;2023-02-28T03:55:36;16.08;;;7.68;;
55575;SDS011;41437;45.478;9.116;2023-02-28T03:58:41;12.30;;;6.60;;
55575;SDS011;41437;45.478;9.116;2023-02-28T04:01:45;12.20;;;6.32;;
55575;SDS011;41437;45.478;9.116;2023-02-28T04:04:48;10.50;;;6.93;;
55575;SDS011;41437;45.478;9.116;2023-02-28T04:07:51;13.60;;;7.75;;
55575;SDS011;41437;45.478;9.116;2023-02-28T04:10:55;13.10;;;7.20;;
55575;SDS011;41437;45.478;9.116;2023-02-28T04:14:02;12.25;;;7.53;;
55575;SDS011;41437;45.478;9.116;2023-02-28T04:17:04;11.10;;;6.95;;
55575;SDS011;41437;45.478;9.116;2023-02-28T04:20:06;13.02;;;7.20;;
55575;SDS011;41437;45.478;9.116;2023-02-28T04:23:11;11.88;;;6.95;;
55575;SDS011;41437;45.478;9.116;2023-02-28T04:26:14;12.75;;;6.72;;
55575;SDS011;41437;45.478;9.116;2023-02-28T04:29:18;11.55;;;6.97;;
55575;SDS011;41437;45.478;9.116;2023-02-28T04:32:20;12.32;;;7.07;;
55575;SDS011;41437;45.478;9.116;2023-02-28T04:35:22;11.52;;;7.38;;
55575;SDS011;41437;45.478;9.116;2023-02-28T04:41:30;11.27;;;7.35;;
55575;SDS011;41437;45.478;9.116;2023-02-28T04:44:31;11.88;;;6.80;;
55575;SDS011;41437;45.478;9.116;2023-02-28T04:47:33;13.30;;;7.10;;
55575;SDS011;41437;45.478;9.116;2023-02-28T04:50:35;11.52;;;7.22;;
55575;SDS011;41437;45.478;9.116;2023-02-28T04:53:37;12.35;;;7.22;;
55575;SDS011;41437;45.478;9.116;2023-02-28T04:56:41;15.23;;;6.97;;
55575;SDS011;41437;45.478;9.116;2023-02-28T04:59:42;11.65;;;7.50;;
55575;SDS011;41437;45.478;9.116;2023-02-28T05:02:44;12.13;;;7.30;;
55575;SDS011;41437;45.478;9.116;2023-02-28T05:05:45;12.13;;;7.38;;
55575;SDS011;41437;45.478;9.116;2023-02-28T05:08:47;11.93;;;7.55;;
55575;SDS011;41437;45.478;9.116;2023-02-28T05:11:50;12.60;;;7.70;;
55575;SDS011;41437;45.478;9.116;2023-02-28T05:14:51;10.40;;;6.85;;
55575;SDS011;41437;45.478;9.116;2023-02-28T05:17:53;11.40;;;7.30;;
55575;SDS011;41437;45.478;9.116;2023-02-28T05:20:54;11.00;;;6.70;;
55575;SDS011;41437;45.478;9.116;2023-02-28T05:23:57;12.68;;;7.22;;
55575;SDS011;41437;45.478;9.116;2023-02-28T05:27:01;16.15;;;7.57;;
55575;SDS011;41437;45.478;9.116;2023-02-28T05:30:03;12.00;;;7.03;;
55575;SDS011;41437;45.478;9.116;2023-02-28T05:33:06;12.25;;;7.18;;
55575;SDS011;41437;45.478;9.116;2023-02-28T05:36:08;11.80;;;7.53;;
55575;SDS011;41437;45.478;9.116;2023-02-28T05:39:10;12.50;;;7.57;;
55575;SDS011;41437;45.478;9.116;2023-02-28T05:42:13;12.15;;;7.90;;
55575;SDS011;41437;45.478;9.116;2023-02-28T05:45:15;11.48;;;7.22;;
55575;SDS011;41437;45.478;9.116;2023-02-28T05:48:17;13.48;;;7.90;;
55575;SDS011;41437;45.478;9.116;2023-02-28T05:51:18;12.35;;;7.30;;
55575;SDS011;41437;45.478;9.116;2023-02-28T05:54:20;15.68;;;7.20;;
55575;SDS011;41437;45.478;9.116;2023-02-28T05:57:23;12.43;;;7.28;;
55575;SDS011;41437;45.478;9.116;2023-02-28T06:00:25;14.25;;;7.40;;
55575;SDS011;41437;45.478;9.116;2023-02-28T06:03:26;13.68;;;7.93;;
55575;SDS011;41437;45.478;9.116;2023-02-28T06:06:28;16.23;;;7.82;;
55575;SDS011;41437;45.478;9.116;2023-02-28T06:09:30;10.85;;;7.22;;
55575;SDS011;41437;45.478;9.116;2023-02-28T06:12:33;15.23;;;8.60;;
55575;SDS011;41437;45.478;9.116;2023-02-28T06:15:35;15.60;;;7.90;;
55575;SDS011;41437;45.478;9.116;2023-02-28T06:18:36;12.77;;;7.90;;
55575;SDS011;41437;45.478;9.116;2023-02-28T06:21:38;11.93;;;7.72;;
55575;SDS011;41437;45.478;9.116;2023-02-28T06:24:39;15.50;;;8.15;;
55575;SDS011;41437;45.478;9.116;2023-02-28T06:27:42;11.57;;;7.57;;
55575;SDS011;41437;45.478;9.116;2023-02-28T06:30:46;13.13;;;8.23;;
55575;SDS011;41437;45.478;9.116;2023-02-28T06:33:49;14.73;;;9.07;;
55575;SDS011;41437;45.478;9.116;2023-02-28T06:36:51;13.38;;;8.02;;
55575;SDS011;41437;45.478;9.116;2023-02-28T06:39:53;14.88;;;8.45;;
55575;SDS011;41437;45.478;9.116;2023-02-28T06:42:57;17.25;;;8.82;;
55575;SDS011;41437;45.478;9.116;2023-02-28T06:45:59;13.75;;;8.77;;
55575;SDS011;41437;45.478;9.116;2023-02-28T06:49:02;14.25;;;8.55;;
55575;SDS011;41437;45.478;9.116;2023-02-28T06:52:03;14.98;;;9.55;;
55575;SDS011;41437;45.478;9.116;2023-02-28T06:55:05;14.50;;;9.13;;
55575;SDS011;41437;45.478;9.116;2023-02-28T06:58:10;16.80;;;9.20;;
55575;SDS011;41437;45.478;9.116;2023-02-28T07:01:15;17.20;;;10.00;;
55575;SDS011;41437;45.478;9.116;2023-02-28T07:04:18;14.27;;;9.57;;
55575;SDS011;41437;45.478;9.116;2023-02-28T07:07:20;16.15;;;9.63;;
55575;SDS011;41437;45.478;9.116;2023-02-28T07:10:22;16.42;;;9.32;;
55575;SDS011;41437;45.478;9.116;2023-02-28T07:13:28;16.45;;;10.45;;
55575;SDS011;41437;45.478;9.116;2023-02-28T07:16:30;20.67;;;10.63;;
55575;SDS011;41437;45.478;9.116;2023-02-28T07:19:32;17.92;;;10.20;;
55575;SDS011;41437;45.478;9.116;2023-02-28T07:22:34;21.90;;;11.10;;
55575;SDS011;41437;45.478;9.116;2023-02-28T07:25:36;16.95;;;10.40;;
55575;SDS011;41437;45.478;9.116;2023-02-28T07:28:39;17.02;;;9.93;;
55575;SDS011;41437;45.478;9.116;2023-02-28T07:31:41;20.13;;;10.43;;
55575;SDS011;41437;45.478;9.116;2023-02-28T07:34:42;17.15;;;10.65;;
55575;SDS011;41437;45.478;9.116;2023-02-28T07:37:44;16.58;;;11.02;;
55575;SDS011;41437;45.478;9.116;2023-02-28T07:40:47;20.38;;;10.90;;
55575;SDS011;41437;45.478;9.116;2023-02-28T07:43:52;20.48;;;11.77;;
55575;SDS011;41437;45.478;9.116;2023-02-28T07:46:54;19.90;;;11.65;;
55575;SDS011;41437;45.478;9.116;2023-02-28T07:49:56;20.42;;;11.45;;
55575;SDS011;41437;45.478;9.116;2023-02-28T07:52:57;20.08;;;11.45;;
55575;SDS011;41437;45.478;9.116;2023-02-28T07:55:59;19.48;;;10.75;;
55575;SDS011;41437;45.478;9.116;2023-02-28T07:59:03;19.98;;;10.98;;
55575;SDS011;41437;45.478;9.116;2023-02-28T08:02:05;26.73;;;11.30;;
55575;SDS011;41437;45.478;9.116;2023-02-28T08:05:06;16.42;;;10.50;;
55575;SDS011;41437;45.478;9.116;2023-02-28T08:08:08;19.38;;;10.88;;
55575;SDS011;41437;45.478;9.116;2023-02-28T08:11:10;17.48;;;10.55;;
55575;SDS011;41437;45.478;9.116;2023-02-28T08:14:12;18.63;;;10.95;;
55575;SDS011;41437;45.478;9.116;2023-02-28T08:17:14;19.27;;;10.70;;
55575;SDS011;41437;45.478;9.116;2023-02-28T08:20:16;18.05;;;10.85;;
55575;SDS011;41437;45.478;9.116;2023-02-28T08:23:17;19.58;;;10.98;;
55575;SDS011;41437;45.478;9.116;2023-02-28T08:26:19;15.82;;;9.88;;
55575;SDS011;41437;45.478;9.116;2023-02-28T08:29:22;17.90;;;11.20;;
55575;SDS011;41437;45.478;9.116;2023-02-28T08:32:24;19.52;;;11.23;;
55575;SDS011;41437;45.478;9.116;2023-02-28T08:35:25;22.05;;;11.27;;
55575;SDS011;41437;45.478;9.116;2023-02-28T08:38:27;16.85;;;10.45;;
55575;SDS011;41437;45.478;9.116;2023-02-28T08:41:29;17.15;;;11.00;;
55575;SDS011;41437;45.478;9.116;2023-02-28T08:44:32;17.48;;;10.68;;
55575;SDS011;41437;45.478;9.116;2023-02-28T08:47:33;20.67;;;11.88;;
55575;SDS011;41437;45.478;9.116;2023-02-28T08:50:35;18.58;;;11.43;;
55575;SDS011;41437;45.478;9.116;2023-02-28T08:53:37;23.95;;;11.38;;
55575;SDS011;41437;45.478;9.116;2023-02-28T08:56:40;18.52;;;11.23;;
55575;SDS011;41437;45.478;9.116;2023-02-28T08:59:43;20.17;;;11.52;;
55575;SDS011;41437;45.478;9.116;2023-02-28T09:02:44;19.08;;;11.20;;
55575;SDS011;41437;45.478;9.116;2023-02-28T09:05:52;20.10;;;10.70;;
55575;SDS011;41437;45.478;9.116;2023-02-28T09:08:57;18.73;;;11.52;;
55575;SDS011;41437;45.478;9.116;2023-02-28T09:12:01;22.25;;;12.23;;
55575;SDS011;41437;45.478;9.116;2023-02-28T09:15:04;20.05;;;11.18;;
55575;SDS011;41437;45.478;9.116;2023-02-28T09:18:07;19.80;;;11.68;;
55575;SDS011;41437;45.478;9.116;2023-02-28T09:21:09;22.40;;;11.98;;
55575;SDS011;41437;45.478;9.116;2023-02-28T09:24:14;20.23;;;12.02;;
55575;SDS011;41437;45.478;9.116;2023-02-28T09:27:15;18.50;;;11.35;;
55575;SDS011;41437;45.478;9.116;2023-02-28T09:30:18;17.77;;;11.05;;
55575;SDS011;41437;45.478;9.116;2023-02-28T09:33:20;20.80;;;12.55;;
55575;SDS011;41437;45.478;9.116;2023-02-28T09:36:23;18.95;;;11.48;;
55575;SDS011;41437;45.478;9.116;2023-02-28T09:39:29;21.45;;;12.13;;
55575;SDS011;41437;45.478;9.116;2023-02-28T09:42:32;20.08;;;10.98;;
55575;SDS011;41437;45.478;9.116;2023-02-28T09:45:39;18.33;;;12.02;;
55575;SDS011;41437;45.478;9.116;2023-02-28T09:48:43;17.77;;;11.80;;
55575;SDS011;41437;45.478;9.116;2023-02-28T09:51:50;18.58;;;11.43;;
55575;SDS011;41437;45.478;9.116;2023-02-28T09:54:54;18.45;;;12.02;;
55575;SDS011;41437;45.478;9.116;2023-02-28T09:57:59;20.52;;;11.82;;
55575;SDS011;41437;45.478;9.116;2023-02-28T10:01:06;22.15;;;12.32;;
55575;SDS011;41437;45.478;9.116;2023-02-28T10:04:15;17.35;;;11.43;;
55575;SDS011;41437;45.478;9.116;2023-02-28T10:07:25;17.88;;;11.82;;
55575;SDS011;41437;45.478;9.116;2023-02-28T10:10:41;30.10;;;14.68;;
55575;SDS011;41437;45.478;9.116;2023-02-28T10:16:54;18.92;;;11.45;;
55575;SDS011;41437;45.478;9.116;2023-02-28T10:20:00;22.58;;;11.75;;
55575;SDS011;41437;45.478;9.116;2023-02-28T10:23:10;21.20;;;11.73;;
55575;SDS011;41437;45.478;9.116;2023-02-28T10:26:18;22.52;;;12.15;;
55575;SDS011;41437;45.478;9.116;2023-02-28T10:29:19;18.17;;;12.57;;
55575;SDS011;41437;45.478;9.116;2023-02-28T10:32:23;18.90;;;12.02;;
55575;SDS011;41437;45.478;9.116;2023-02-28T10:35:28;18.55;;;11.10;;
55575;SDS011;41437;45.478;9.116;2023-02-28T10:38:32;16.23;;;11.10;;
55575;SDS011;41437;45.478;9.116;2023-02-28T10:41:36;16.42;;;10.50;;
55575;SDS011;41437;45.478;9.116;2023-02-28T10:44:44;17.20;;;11.23;;
55575;SDS011;41437;45.478;9.116;2023-02-28T10:47:51;19.52;;;11.75;;
55575;SDS011;41437;45.478;9.116;2023-02-28T10:50:55;17.38;;;12.00;;
55575;SDS011;41437;45.478;9.116;2023-02-28T10:53:57;19.10;;;12.25;;
55575;SDS011;41437;45.478;9.116;2023-02-28T10:57:11;20.15;;;12.63;;
55575;SDS011;41437;45.478;9.116;2023-02-28T11:00:18;22.42;;;12.95;;
55575;SDS011;41437;45.478;9.116;2023-02-28T11:03:32;20.42;;;12.27;;
55575;SDS011;41437;45.478;9.116;2023-02-28T11:06:35;21.38;;;12.48;;
55575;SDS011;41437;45.478;9.116;2023-02-28T11:09:37;19.88;;;12.52;;
55575;SDS011;41437;45.478;9.116;2023-02-28T11:12:41;17.73;;;12.40;;
55575;SDS011;41437;45.478;9.116;2023-02-28T11:15:45;19.95;;;12.32;;
55575;SDS011;41437;45.478;9.116;2023-02-28T11:18:54;20.90;;;12.73;;
55575;SDS011;41437;45.478;9.116;2023-02-28T11:21:57;20.55;;;12.50;;
55575;SDS011;41437;45.478;9.116;2023-02-28T11:25:06;21.60;;;12.13;;
55575;SDS011;41437;45.478;9.116;2023-02-28T11:28:24;21.27;;;12.40;;
55575;SDS011;41437;45.478;9.116;2023-02-28T11:31:27;18.73;;;12.98;;
55575;SDS011;41437;45.478;9.116;2023-02-28T11:34:31;20.77;;;13.60;;
55575;SDS011;41437;45.478;9.116;2023-02-28T11:37:33;18.58;;;12.23;;
55575;SDS011;41437;45.478;9.116;2023-02-28T11:40:37;21.25;;;13.10;;
55575;SDS011;41437;45.478;9.116;2023-02-28T11:43:49;19.25;;;13.35;;
55575;SDS011;41437;45.478;9.116;2023-02-28T11:47:03;24.38;;;13.40;;
55575;SDS011;41437;45.478;9.116;2023-02-28T11:50:20;20.65;;;13.73;;
55575;SDS011;41437;45.478;9.116;2023-02-28T11:53:47;20.90;;;13.35;;
55575;SDS011;41437;45.478;9.116;2023-02-28T11:57:03;22.63;;;14.30;;
55575;SDS011;41437;45.478;9.116;2023-02-28T12:00:19;21.60;;;14.80;;
55575;SDS011;41437;45.478;9.116;2023-02-28T12:03:38;23.88;;;14.85;;
55575;SDS011;41437;45.478;9.116;2023-02-28T12:06:49;24.00;;;15.15;;
55575;SDS011;41437;45.478;9.116;2023-02-28T12:09:58;22.58;;;15.02;;
55575;SDS011;41437;45.478;9.116;2023-02-28T12:13:08;24.02;;;15.23;;
55575;SDS011;41437;45.478;9.116;2023-02-28T12:16:34;20.40;;;14.80;;
55575;SDS011;41437;45.478;9.116;2023-02-28T12:19:47;24.35;;;15.13;;
55575;SDS011;41437;45.478;9.116;2023-02-28T12:22:59;26.55;;;14.88;;
55575;SDS011;41437;45.478;9.116;2023-02-28T12:26:14;25.40;;;15.77;;
55575;SDS011;41437;45.478;9.116;2023-02-28T12:29:21;21.55;;;15.13;;
55575;SDS011;41437;45.478;9.116;2023-02-28T12:32:30;23.73;;;15.85;;
55575;SDS011;41437;45.478;9.116;2023-02-28T12:35:36;24.95;;;15.70;;
55575;SDS011;41437;45.478;9.116;2023-02-28T12:38:42;21.95;;;15.13;;
55575;SDS011;41437;45.478;9.116;2023-02-28T12:41:47;23.05;;;16.10;;
55575;SDS011;41437;45.478;9.116;2023-02-28T12:44:56;21.05;;;14.57;;
55575;SDS011;41437;45.478;9.116;2023-02-28T12:48:04;24.38;;;15.70;;
55575;SDS011;41437;45.478;9.116;2023-02-28T12:51:10;22.08;;;15.52;;
55575;SDS011;41437;45.478;9.116;2023-02-28T12:54:16;24.58;;;15.95;;
55575;SDS011;41437;45.478;9.116;2023-02-28T12:57:27;24.17;;;16.58;;
55575;SDS011;41437;45.478;9.116;2023-02-28T13:00:36;24.10;;;16.05;;
55575;SDS011;41437;45.478;9.116;2023-02-28T13:04:04;23.85;;;16.15;;
55575;SDS011;41437;45.478;9.116;2023-02-28T13:07:26;22.73;;;15.00;;
55575;SDS011;41437;45.478;9.116;2023-02-28T13:10:45;23.95;;;15.55;;
55575;SDS011;41437;45.478;9.116;2023-02-28T13:13:54;21.23;;;15.82;;
55575;SDS011;41437;45.478;9.116;2023-02-28T13:17:00;23.20;;;15.75;;
55575;SDS011;41437;45.478;9.116;2023-02-28T13:20:15;23.30;;;15.48;;
55575;SDS011;41437;45.478;9.116;2023-02-28T13:34:13;25.50;;;15.20;;
55575;SDS011;41437;45.478;9.116;2023-02-28T13:37:33;21.52;;;15.73;;
55575;SDS011;41437;45.478;9.116;2023-02-28T13:40:37;21.90;;;15.13;;
55575;SDS011;41437;45.478;9.116;2023-02-28T13:50:31;25.42;;;15.90;;
55575;SDS011;41437;45.478;9.116;2023-02-28T13:57:07;23.10;;;15.45;;
55575;SDS011;41437;45.478;9.116;2023-02-28T14:00:23;24.67;;;15.70;;
55575;SDS011;41437;45.478;9.116;2023-02-28T14:03:39;24.88;;;16.40;;
55575;SDS011;41437;45.478;9.116;2023-02-28T14:06:53;22.90;;;16.45;;
55575;SDS011;41437;45.478;9.116;2023-02-28T14:09:58;24.92;;;15.40;;
55575;SDS011;41437;45.478;9.116;2023-02-28T14:13:11;22.13;;;15.75;;
55575;SDS011;41437;45.478;9.116;2023-02-28T14:16:36;23.95;;;15.52;;
55575;SDS011;41437;45.478;9.116;2023-02-28T14:19:43;22.38;;;15.02;;
55575;SDS011;41437;45.478;9.116;2023-02-28T14:22:51;22.60;;;15.38;;
55575;SDS011;41437;45.478;9.116;2023-02-28T14:26:03;25.67;;;15.52;;
55575;SDS011;41437;45.478;9.116;2023-02-28T14:29:21;25.58;;;16.30;;
55575;SDS011;41437;45.478;9.116;2023-02-28T14:32:44;23.38;;;14.80;;
55575;SDS011;41437;45.478;9.116;2023-02-28T14:35:55;23.92;;;16.73;;
55575;SDS011;41437;45.478;9.116;2023-02-28T14:39:04;20.45;;;14.75;;
55575;SDS011;41437;45.478;9.116;2023-02-28T14:45:32;21.80;;;15.52;;
55575;SDS011;41437;45.478;9.116;2023-02-28T14:48:37;22.85;;;15.32;;
55575;SDS011;41437;45.478;9.116;2023-02-28T14:51:41;20.98;;;15.25;;
55575;SDS011;41437;45.478;9.116;2023-02-28T14:54:43;21.83;;;15.43;;
55575;SDS011;41437;45.478;9.116;2023-02-28T14:57:50;23.30;;;16.35;;
55575;SDS011;41437;45.478;9.116;2023-02-28T15:00:56;25.48;;;16.27;;
55575;SDS011;41437;45.478;9.116;2023-02-28T15:07:08;24.30;;;15.68;;
55575;SDS011;41437;45.478;9.116;2023-02-28T15:10:13;23.88;;;15.43;;
55575;SDS011;41437;45.478;9.116;2023-02-28T15:13:18;23.05;;;15.80;;
55575;SDS011;41437;45.478;9.116;2023-02-28T15:16:21;22.38;;;15.07;;
55575;SDS011;41437;45.478;9.116;2023-02-28T15:19:26;24.85;;;15.60;;
55575;SDS011;41437;45.478;9.116;2023-02-28T15:22:34;22.30;;;15.25;;
55575;SDS011;41437;45.478;9.116;2023-02-28T15:25:38;23.35;;;15.60;;
55575;SDS011;41437;45.478;9.116;2023-02-28T15:28:41;23.70;;;15.65;;
55575;SDS011;41437;45.478;9.116;2023-02-28T15:31:44;24.90;;;15.38;;
55575;SDS011;41437;45.478;9.116;2023-02-28T15:34:49;24.38;;;15.85;;
55575;SDS011;41437;45.478;9.116;2023-02-28T15:37:53;26.58;;;15.55;;
55575;SDS011;41437;45.478;9.116;2023-02-28T15:40:57;24.67;;;16.35;;
55575;SDS011;41437;45.478;9.116;2023-02-28T15:44:23;20.27;;;14.30;;
55575;SDS011;41437;45.478;9.116;2023-02-28T15:47:27;21.73;;;15.38;;
55575;SDS011;41437;45.478;9.116;2023-02-28T15:50:30;22.25;;;15.20;;
55575;SDS011;41437;45.478;9.116;2023-02-28T15:53:34;23.60;;;15.20;;
55575;SDS011;41437;45.478;9.116;2023-02-28T15:56:38;21.95;;;15.23;;
55575;SDS011;41437;45.478;9.116;2023-02-28T15:59:48;23.65;;;15.32;;
55575;SDS011;41437;45.478;9.116;2023-02-28T16:02:52;24.40;;;15.45;;
55575;SDS011;41437;45.478;9.116;2023-02-28T16:06:09;23.25;;;16.08;;
55575;SDS011;41437;45.478;9.116;2023-02-28T16:09:35;28.10;;;16.20;;
55575;SDS011;41437;45.478;9.116;2023-02-28T16:12:38;26.23;;;15.63;;
55575;SDS011;41437;45.478;9.116;2023-02-28T16:15:41;24.75;;;16.20;;
55575;SDS011;41437;45.478;9.116;2023-02-28T16:21:48;24.55;;;15.07;;
55575;SDS011;41437;45.478;9.116;2023-02-28T16:24:52;24.45;;;15.00;;
55575;SDS011;41437;45.478;9.116;2023-02-28T16:27:54;24.75;;;14.90;;
55575;SDS011;41437;45.478;9.116;2023-02-28T16:30:57;22.50;;;15.20;;
55575;SDS011;41437;45.478;9.116;2023-02-28T16:34:02;22.70;;;15.77;;
55575;SDS011;41437;45.478;9.116;2023-02-28T16:37:04;25.35;;;15.23;;
55575;SDS011;41437;45.478;9.116;2023-02-28T16:40:14;25.13;;;16.30;;
55575;SDS011;41437;45.478;9.116;2023-02-28T16:43:17;21.35;;;13.90;;
55575;SDS011;41437;45.478;9.116;2023-02-28T16:46:21;23.63;;;15.32;;
55575;SDS011;41437;45.478;9.116;2023-02-28T16:49:23;21.50;;;14.30;;
55575;SDS011;41437;45.478;9.116;2023-02-28T16:52:25;25.25;;;15.98;;
55575;SDS011;41437;45.478;9.116;2023-02-28T16:55:28;24.02;;;14.95;;
55575;SDS011;41437;45.478;9.116;2023-02-28T16:58:31;24.42;;;15.35;;
55575;SDS011;41437;45.478;9.116;2023-02-28T17:01:35;23.13;;;15.43;;
55575;SDS011;41437;45.478;9.116;2023-02-28T17:04:37;25.25;;;15.52;;
55575;SDS011;41437;45.478;9.116;2023-02-28T17:07:38;23.02;;;15.68;;
55575;SDS011;41437;45.478;9.116;2023-02-28T17:10:41;22.30;;;14.80;;
55575;SDS011;41437;45.478;9.116;2023-02-28T17:13:43;24.52;;;15.10;;
55575;SDS011;41437;45.478;9.116;2023-02-28T17:16:45;22.38;;;14.95;;
55575;SDS011;41437;45.478;9.116;2023-02-28T17:19:47;22.00;;;15.15;;
55575;SDS011;41437;45.478;9.116;2023-02-28T17:22:49;25.20;;;15.35;;
55575;SDS011;41437;45.478;9.116;2023-02-28T17:25:52;25.42;;;15.10;;
55575;SDS011;41437;45.478;9.116;2023-02-28T17:28:54;23.40;;;14.63;;
55575;SDS011;41437;45.478;9.116;2023-02-28T17:31:56;28.17;;;15.48;;
55575;SDS011;41437;45.478;9.116;2023-02-28T17:35:01;22.83;;;15.20;;
55575;SDS011;41437;45.478;9.116;2023-02-28T17:38:02;23.58;;;14.55;;
55575;SDS011;41437;45.478;9.116;2023-02-28T17:41:05;26.48;;;15.00;;
55575;SDS011;41437;45.478;9.116;2023-02-28T17:44:07;21.80;;;13.48;;
55575;SDS011;41437;45.478;9.116;2023-02-28T17:47:09;23.60;;;14.27;;
55575;SDS011;41437;45.478;9.116;2023-02-28T17:50:14;25.48;;;15.63;;
55575;SDS011;41437;45.478;9.116;2023-02-28T17:53:16;26.92;;;15.18;;
55575;SDS011;41437;45.478;9.116;2023-02-28T17:56:20;22.67;;;15.10;;
55575;SDS011;41437;45.478;9.116;2023-02-28T17:59:23;22.38;;;15.13;;
55575;SDS011;41437;45.478;9.116;2023-02-28T18:02:24;26.25;;;15.13;;
55575;SDS011;41437;45.478;9.116;2023-02-28T18:05:27;23.90;;;14.18;;
55575;SDS011;41437;45.478;9.116;2023-02-28T18:08:28;24.80;;;14.55;;
55575;SDS011;41437;45.478;9.116;2023-02-28T18:11:32;23.08;;;14.82;;
55575;SDS011;41437;45.478;9.116;2023-02-28T18:14:43;25.58;;;14.32;;
55575;SDS011;41437;45.478;9.116;2023-02-28T18:17:47;29.30;;;15.80;;
55575;SDS011;41437;45.478;9.116;2023-02-28T18:20:50;25.48;;;15.27;;
55575;SDS011;41437;45.478;9.116;2023-02-28T18:23:53;25.65;;;15.98;;
55575;SDS011;41437;45.478;9.116;2023-02-28T18:26:56;23.90;;;14.95;;
55575;SDS011;41437;45.478;9.116;2023-02-28T18:29:58;24.60;;;14.60;;
55575;SDS011;41437;45.478;9.116;2023-02-28T18:33:00;28.10;;;15.65;;
55575;SDS011;41437;45.478;9.116;2023-02-28T18:36:02;28.85;;;16.00;;
55575;SDS011;41437;45.478;9.116;2023-02-28T18:39:04;26.92;;;16.13;;
55575;SDS011;41437;45.478;9.116;2023-02-28T18:42:07;25.23;;;15.27;;
55575;SDS011;41437;45.478;9.116;2023-02-28T18:45:11;25.25;;;16.08;;
55575;SDS011;41437;45.478;9.116;2023-02-28T18:48:12;27.73;;;16.15;;
55575;SDS011;41437;45.478;9.116;2023-02-28T18:51:15;24.88;;;16.48;;
55575;SDS011;41437;45.478;9.116;2023-02-28T18:54:18;28.30;;;17.17;;
55575;SDS011;41437;45.478;9.116;2023-02-28T18:57:23;25.92;;;16.25;;